Bakersfield, California
Current Conditions -  °F | °C
As of 4:54 AM on Friday 19 Dec 2014 (Local Time) from KBFL Reporting Station
Clear Clear  
Wind Chill: 42°   Ceiling: Unl
Heat Index: 45°   Visibility: 10mi
Dew Point: 42°   Wind: 6mph
Humidity: 90%   Direction: 340°NNW
Pressure: 30.22"   Gusts: NA
Location:  35.37°N, 119.01°W
Report Text: KBFL 191254Z AUTO 34005KT 10SM CLR 07/06 A3022 RMK AO2 SLP233 T00720056
Loading
Personal Weather Stations






























Interactive Weather Map New forecast layout! Learn more

10-Day Weather Forecast

Advertisements
Track Severe Weather on mobile